Time;durP1;ratioP1;P1;durP2;ratioP2;P2;SDS_P1;SDS_P2;PMS_P1;PMS_P2;Temp;Humidity;BMP_temperature;BMP_pressure;BME280_temperature;BME280_humidity;BME280_pressure;Samples;Min_cycle;Max_cycle;Signal;HPM_P1;HPM_P2
2022/06/26 00:00:03;;;;;;;6.13;5.60;;;18.00;99.90;;;;;;4993395;28;20073;-67
2022/06/26 00:02:34;;;;;;;6.45;5.85;;;18.00;99.90;;;;;;4991856;28;20052;-71
2022/06/26 00:05:02;;;;;;;8.13;5.78;;;18.00;99.90;;;;;;4987383;28;20065;-69
2022/06/26 00:07:29;;;;;;;5.82;5.32;;;18.00;99.90;;;;;;4993121;28;20734;-69
2022/06/26 00:09:56;;;;;;;5.85;5.43;;;18.00;99.90;;;;;;4991904;28;20085;-70
2022/06/26 00:12:23;;;;;;;5.93;5.32;;;18.00;99.90;;;;;;5002288;28;20054;-73
2022/06/26 00:14:49;;;;;;;5.95;5.45;;;18.00;99.90;;;;;;4994285;28;20074;-69
2022/06/26 00:17:16;;;;;;;6.85;5.97;;;17.90;99.90;;;;;;4999804;28;20103;-68
2022/06/26 00:19:43;;;;;;;7.18;6.25;;;17.90;99.90;;;;;;4998682;28;20137;-69
2022/06/26 00:22:10;;;;;;;7.72;5.45;;;18.00;99.90;;;;;;4992173;28;20459;-70
2022/06/26 00:24:37;;;;;;;7.13;6.38;;;18.00;99.90;;;;;;4999940;28;20076;-69
2022/06/26 00:27:06;;;;;;;6.05;5.53;;;17.90;99.90;;;;;;5005976;28;20069;-74
2022/06/26 00:29:34;;;;;;;6.82;5.63;;;17.90;99.90;;;;;;5005672;28;20121;-70
2022/06/26 00:32:03;;;;;;;6.55;5.60;;;17.90;99.90;;;;;;4998675;28;20058;-67
2022/06/26 00:34:30;;;;;;;7.72;7.18;;;17.90;99.90;;;;;;4997849;28;20046;-72
2022/06/26 00:36:57;;;;;;;6.88;6.18;;;17.90;99.90;;;;;;4996514;28;20046;-69
2022/06/26 00:39:24;;;;;;;5.97;5.47;;;17.90;99.90;;;;;;5000238;28;20092;-69
2022/06/26 00:41:54;;;;;;;7.05;6.47;;;17.80;99.90;;;;;;4998478;28;20081;-69
2022/06/26 00:44:23;;;;;;;6.47;5.97;;;17.90;99.90;;;;;;4991325;28;20080;-67
2022/06/26 00:46:52;;;;;;;6.32;5.68;;;17.80;99.90;;;;;;4994637;28;20061;-67
2022/06/26 00:49:19;;;;;;;6.18;5.50;;;17.80;99.90;;;;;;4998086;28;20054;-71
2022/06/26 00:51:54;;;;;;;6.80;6.20;;;17.90;99.90;;;;;;4994701;28;20112;-68
2022/06/26 00:54:24;;;;;;;7.88;6.20;;;17.80;99.90;;;;;;4991961;28;20041;-72
2022/06/26 00:56:51;;;;;;;6.78;6.10;;;17.80;99.90;;;;;;4992853;28;20043;-68
2022/06/26 00:59:18;;;;;;;6.97;6.38;;;17.80;99.90;;;;;;5001720;28;20120;-71
2022/06/26 01:01:45;;;;;;;6.43;5.82;;;17.80;99.90;;;;;;4999928;28;20046;-73
2022/06/26 01:04:12;;;;;;;6.80;5.13;;;17.80;99.90;;;;;;5000989;28;20061;-67
2022/06/26 01:06:39;;;;;;;6.63;6.10;;;17.80;99.90;;;;;;4996527;28;20139;-71
2022/06/26 01:09:09;;;;;;;6.93;6.30;;;17.80;99.90;;;;;;4999667;28;20077;-69
2022/06/26 01:11:37;;;;;;;5.95;5.43;;;17.80;99.90;;;;;;5012016;28;20784;-69
2022/06/26 01:14:05;;;;;;;9.00;8.13;;;17.80;99.90;;;;;;5001314;28;20472;-69
2022/06/26 01:16:32;;;;;;;6.72;6.13;;;17.80;99.90;;;;;;5010242;28;20034;-71
2022/06/26 01:18:59;;;;;;;6.97;6.40;;;17.70;99.90;;;;;;4995569;28;20043;-71
2022/06/26 01:21:26;;;;;;;5.82;5.35;;;17.70;99.90;;;;;;4997251;28;20074;-67
2022/06/26 01:23:55;;;;;;;9.13;7.47;;;17.70;99.90;;;;;;4999905;28;20053;-70
2022/06/26 01:26:25;;;;;;;6.75;6.20;;;17.70;99.90;;;;;;4991496;28;20050;-71
2022/06/26 01:28:52;;;;;;;6.13;5.57;;;17.70;99.90;;;;;;4999308;28;20053;-68
2022/06/26 01:31:20;;;;;;;5.85;5.30;;;17.70;99.90;;;;;;4997494;28;20395;-71
2022/06/26 01:33:48;;;;;;;7.82;6.10;;;17.70;99.90;;;;;;4995661;28;20058;-67
2022/06/26 01:36:16;;;;;;;7.03;6.43;;;17.70;99.90;;;;;;4992172;28;20396;-67
2022/06/26 01:38:43;;;;;;;6.03;5.53;;;17.70;99.90;;;;;;4993286;28;20484;-69
2022/06/26 01:41:10;;;;;;;6.43;5.93;;;17.70;99.90;;;;;;4999129;28;20049;-70
2022/06/26 01:43:39;;;;;;;7.53;6.75;;;17.70;99.90;;;;;;4994743;28;20405;-72
2022/06/26 01:46:07;;;;;;;6.28;5.78;;;17.70;99.90;;;;;;4991471;28;20050;-68
2022/06/26 01:48:37;;;;;;;5.90;5.28;;;17.70;99.90;;;;;;4995509;28;20042;-67
2022/06/26 01:51:06;;;;;;;6.95;6.22;;;17.70;99.90;;;;;;4997210;28;20475;-70
2022/06/26 01:53:36;;;;;;;7.07;5.68;;;17.70;99.90;;;;;;5000677;28;20081;-72
2022/06/26 01:56:04;;;;;;;6.55;5.95;;;17.60;99.90;;;;;;4994918;28;20062;-67
2022/06/26 01:58:34;;;;;;;6.75;6.15;;;17.60;99.90;;;;;;4991540;28;20054;-71
2022/06/26 02:01:03;;;;;;;6.22;5.28;;;17.60;99.90;;;;;;4994858;28;20058;-68
2022/06/26 02:03:31;;;;;;;7.87;6.03;;;17.60;99.90;;;;;;4997763;28;20505;-68
2022/06/26 02:05:58;;;;;;;8.80;5.85;;;17.60;99.90;;;;;;4997489;28;20366;-73
2022/06/26 02:08:25;;;;;;;7.20;5.32;;;17.70;99.90;;;;;;4997282;28;20038;-68
2022/06/26 02:13:40;;;;;;;7.43;6.72;;;17.70;99.90;;;;;;4998451;28;20098;-71
2022/06/26 02:16:19;;;;;;;6.07;5.57;;;17.70;99.90;;;;;;5019412;28;20071;-67
2022/06/26 02:18:48;;;;;;;5.47;4.97;;;17.70;99.90;;;;;;5017517;28;20076;-68
2022/06/26 02:21:18;;;;;;;6.35;5.75;;;17.70;99.90;;;;;;5014325;28;20049;-68
2022/06/26 02:23:47;;;;;;;6.45;5.88;;;17.70;99.90;;;;;;5009940;28;20098;-71
2022/06/26 02:26:16;;;;;;;5.65;5.10;;;17.80;99.90;;;;;;5016617;28;20829;-73
2022/06/26 02:28:44;;;;;;;5.35;4.85;;;17.70;99.90;;;;;;5020740;28;20657;-70
2022/06/26 02:31:11;;;;;;;6.47;5.60;;;17.70;99.90;;;;;;5018258;28;20073;-73
2022/06/26 02:33:38;;;;;;;6.15;5.63;;;17.70;99.90;;;;;;5021207;28;20080;-71
2022/06/26 02:36:08;;;;;;;7.18;6.57;;;17.70;99.90;;;;;;5004805;28;20510;-68
2022/06/26 02:38:38;;;;;;;6.95;6.35;;;17.80;99.90;;;;;;5005924;28;20460;-68
2022/06/26 02:41:05;;;;;;;6.15;5.65;;;17.80;99.90;;;;;;5016296;28;20157;-69
2022/06/26 02:43:33;;;;;;;8.23;7.43;;;17.80;99.90;;;;;;5019311;28;20056;-75
2022/06/26 02:46:03;;;;;;;7.93;6.70;;;17.80;99.90;;;;;;5017793;28;20053;-67
2022/06/26 02:48:31;;;;;;;7.38;6.68;;;17.80;99.90;;;;;;5018235;28;20060;-68
2022/06/26 02:50:58;;;;;;;6.82;6.22;;;17.80;99.90;;;;;;5012099;28;20766;-69
2022/06/26 02:53:25;;;;;;;5.97;5.47;;;17.90;99.90;;;;;;5002068;28;20135;-67
2022/06/26 02:55:52;;;;;;;6.32;5.47;;;17.90;99.90;;;;;;4991701;28;20052;-67
2022/06/26 02:58:21;;;;;;;6.35;5.63;;;17.90;99.90;;;;;;4988343;28;20042;-69
2022/06/26 03:00:59;;;;;;;6.68;6.00;;;18.00;99.90;;;;;;4994561;28;20496;-68
2022/06/26 03:03:26;;;;;;;7.03;6.10;;;18.00;99.90;;;;;;4995946;28;20571;-67
2022/06/26 03:05:54;;;;;;;5.95;5.40;;;18.00;99.90;;;;;;4995213;28;20050;-68
2022/06/26 03:08:24;;;;;;;6.25;5.68;;;18.10;99.90;;;;;;4990677;28;20074;-71
2022/06/26 03:10:51;;;;;;;5.80;5.30;;;18.10;99.90;;;;;;4989775;28;20038;-67
2022/06/26 03:13:18;;;;;;;8.95;5.85;;;18.20;99.90;;;;;;4999017;28;20071;-70
2022/06/26 03:15:45;;;;;;;5.72;5.25;;;18.20;99.90;;;;;;5000560;28;20085;-67
2022/06/26 03:18:15;;;;;;;7.03;6.45;;;18.20;99.90;;;;;;4998978;28;20057;-67
2022/06/26 03:20:43;;;;;;;6.53;5.80;;;18.30;99.90;;;;;;4993836;28;20062;-67
2022/06/26 03:23:11;;;;;;;5.65;5.20;;;18.30;99.90;;;;;;4996269;28;20092;-69
2022/06/26 03:25:38;;;;;;;5.93;5.40;;;18.30;99.90;;;;;;5000464;28;20073;-76
2022/06/26 03:28:05;;;;;;;7.65;5.75;;;18.40;99.90;;;;;;4996550;28;20133;-67
2022/06/26 03:30:39;;;;;;;4.97;4.53;;;18.50;99.90;;;;;;4997431;28;20447;-70
2022/06/26 03:33:07;;;;;;;5.65;5.18;;;18.50;99.90;;;;;;4994591;28;20054;-70
2022/06/26 03:35:35;;;;;;;6.57;5.05;;;18.60;99.90;;;;;;4999160;28;20100;-68
2022/06/26 03:38:03;;;;;;;5.43;4.88;;;18.60;99.90;;;;;;4994353;28;25428;-75
2022/06/26 03:40:32;;;;;;;5.75;5.35;;;18.70;99.90;;;;;;4994370;28;20064;-71
2022/06/26 03:42:59;;;;;;;7.50;6.82;;;18.70;99.90;;;;;;4997580;28;20046;-71
2022/06/26 03:45:36;;;;;;;5.55;5.05;;;18.80;99.90;;;;;;4995918;28;20411;-68
2022/06/26 03:48:03;;;;;;;5.53;5.00;;;18.80;99.90;;;;;;4989474;28;20045;-73
2022/06/26 03:50:30;;;;;;;7.03;5.15;;;18.90;99.90;;;;;;4999965;28;20038;-68
2022/06/26 03:53:01;;;;;;;7.90;5.97;;;19.00;99.90;;;;;;5000646;28;20050;-72
2022/06/26 03:55:28;;;;;;;5.85;4.72;;;19.10;99.90;;;;;;4999408;28;20054;-68
2022/06/26 03:57:56;;;;;;;6.95;6.32;;;19.20;99.90;;;;;;4994126;28;20053;-70
2022/06/26 04:00:23;;;;;;;6.63;5.57;;;19.30;99.90;;;;;;5003907;28;20627;-67
2022/06/26 04:02:50;;;;;;;5.43;4.93;;;19.40;99.90;;;;;;4998989;28;20057;-71
2022/06/26 04:05:23;;;;;;;5.32;4.93;;;19.40;99.90;;;;;;5002955;28;20045;-69
2022/06/26 04:07:55;;;;;;;6.03;5.15;;;19.50;99.90;;;;;;4997964;28;20050;-69
2022/06/26 04:10:26;;;;;;;7.38;5.15;;;19.60;99.90;;;;;;5017362;28;20049;-67
2022/06/26 04:12:57;;;;;;;5.75;5.25;;;19.70;99.90;;;;;;4996345;28;20077;-69
2022/06/26 04:15:24;;;;;;;5.60;5.10;;;19.80;99.90;;;;;;4995289;28;20060;-68
2022/06/26 04:17:51;;;;;;;5.07;4.55;;;19.80;99.90;;;;;;4993137;28;20488;-67
2022/06/26 04:20:20;;;;;;;5.10;4.65;;;19.90;99.90;;;;;;5005199;28;20442;-67
2022/06/26 04:23:03;;;;;;;5.50;5.00;;;19.90;99.90;;;;;;4998800;28;20116;-67
2022/06/26 04:25:32;;;;;;;4.60;4.28;;;20.00;99.90;;;;;;5003958;28;20058;-68
2022/06/26 04:28:02;;;;;;;5.03;4.53;;;20.10;99.90;;;;;;4993816;28;20099;-67
2022/06/26 04:30:33;;;;;;;5.35;4.82;;;20.20;99.90;;;;;;4998095;28;20120;-67
2022/06/26 04:33:01;;;;;;;7.00;4.88;;;20.20;99.90;;;;;;4996742;28;20050;-72
2022/06/26 04:35:30;;;;;;;4.35;4.05;;;20.30;99.90;;;;;;4998033;28;20069;-70
2022/06/26 04:37:59;;;;;;;4.15;3.67;;;20.50;99.90;;;;;;5009976;28;20069;-74
2022/06/26 04:40:26;;;;;;;5.45;4.65;;;20.50;99.90;;;;;;5011339;28;20058;-73
2022/06/26 04:42:53;;;;;;;4.70;4.30;;;20.60;99.90;;;;;;4998829;28;20050;-71
2022/06/26 04:45:22;;;;;;;5.30;4.65;;;20.60;99.90;;;;;;5000528;28;20052;-67
2022/06/26 04:47:51;;;;;;;5.22;4.72;;;20.80;99.90;;;;;;4999327;28;20107;-70
2022/06/26 04:50:18;;;;;;;8.15;4.85;;;20.80;99.90;;;;;;5000570;28;20053;-70
2022/06/26 04:52:47;;;;;;;5.25;4.78;;;21.00;99.90;;;;;;4992612;28;20076;-67
2022/06/26 04:55:15;;;;;;;3.95;3.65;;;21.00;99.90;;;;;;4992918;28;20069;-68
2022/06/26 04:57:46;;;;;;;4.40;4.00;;;21.10;99.90;;;;;;4997920;28;20058;-67
2022/06/26 05:00:14;;;;;;;6.38;4.78;;;21.20;99.90;;;;;;4994775;28;20049;-67
2022/06/26 05:03:04;;;;;;;8.85;5.22;;;21.30;99.90;;;;;;4999503;28;20050;-67
2022/06/26 05:05:38;;;;;;;5.20;4.80;;;21.30;99.90;;;;;;5004111;28;20888;-74
2022/06/26 05:08:25;;;;;;;4.47;4.07;;;21.40;99.90;;;;;;5006899;28;20041;-67
2022/06/26 05:10:52;;;;;;;7.28;5.15;;;21.50;99.90;;;;;;5022240;28;20527;-72
2022/06/26 05:13:19;;;;;;;4.57;4.20;;;21.60;99.90;;;;;;5016430;28;20104;-70
2022/06/26 05:16:01;;;;;;;5.88;5.30;;;21.70;99.90;;;;;;5014972;28;20419;-69
2022/06/26 05:18:28;;;;;;;4.30;3.95;;;21.80;99.90;;;;;;5017141;28;20466;-70
2022/06/26 05:20:55;;;;;;;4.80;4.10;;;21.90;99.90;;;;;;5015474;28;20046;-68
2022/06/26 05:23:29;;;;;;;4.45;3.80;;;22.00;99.90;;;;;;5019591;28;20046;-71
2022/06/26 05:26:02;;;;;;;6.47;4.13;;;22.00;99.90;;;;;;5008238;28;20149;-67
2022/06/26 05:28:29;;;;;;;5.45;4.80;;;22.20;99.90;;;;;;5020875;28;20041;-68
2022/06/26 05:30:56;;;;;;;8.32;5.20;;;22.20;99.90;;;;;;5013546;28;20160;-71
2022/06/26 05:33:24;;;;;;;5.55;4.40;;;22.30;99.90;;;;;;5020589;28;20156;-71
2022/06/26 05:35:51;;;;;;;4.75;4.35;;;22.40;99.90;;;;;;4996387;28;20074;-68
2022/06/26 05:38:18;;;;;;;5.68;3.72;;;22.50;99.90;;;;;;5014214;28;20066;-70
2022/06/26 05:40:45;;;;;;;5.10;3.70;;;22.60;99.90;;;;;;4999521;28;20196;-67
2022/06/26 05:43:15;;;;;;;4.55;3.53;;;22.80;99.90;;;;;;4997255;28;20097;-69
2022/06/26 05:45:42;;;;;;;8.98;4.43;;;22.90;99.90;;;;;;5000733;28;20397;-67
2022/06/26 05:48:26;;;;;;;9.52;4.28;;;23.00;99.90;;;;;;4989496;28;20129;-67
2022/06/26 05:51:25;;;;;;;4.13;3.65;;;23.10;99.90;;;;;;4998572;28;20058;-67
2022/06/26 05:54:06;;;;;;;5.70;3.97;;;23.10;99.90;;;;;;4986597;28;20053;-68
2022/06/26 05:56:43;;;;;;;4.72;3.80;;;23.20;99.90;;;;;;4987118;28;20870;-72
2022/06/26 05:59:49;;;;;;;4.03;3.72;;;23.20;99.90;;;;;;5014277;28;20164;-71
2022/06/26 06:02:47;;;;;;;3.92;3.60;;;23.30;99.90;;;;;;5019279;28;20116;-69
2022/06/26 06:05:19;;;;;;;5.93;4.15;;;23.30;99.90;;;;;;5000563;28;20697;-68
2022/06/26 06:07:47;;;;;;;4.85;4.53;;;23.40;99.90;;;;;;4994611;28;20436;-68
2022/06/26 06:10:14;;;;;;;4.50;4.15;;;23.50;99.90;;;;;;4990475;28;20046;-74
2022/06/26 06:12:43;;;;;;;5.20;4.70;;;23.60;99.90;;;;;;4986879;28;20039;-69
2022/06/26 06:15:11;;;;;;;4.30;3.90;;;23.70;99.90;;;;;;4989450;28;20048;-68
2022/06/26 06:17:44;;;;;;;4.60;3.45;;;23.80;99.90;;;;;;4989291;28;20134;-67
2022/06/26 06:20:20;;;;;;;4.22;3.83;;;23.90;99.90;;;;;;5007663;28;20060;-71
2022/06/26 06:22:52;;;;;;;4.25;3.65;;;24.00;99.90;;;;;;5029037;28;20454;-68
2022/06/26 06:25:22;;;;;;;6.00;4.18;;;24.10;99.90;;;;;;5017437;28;20454;-71
2022/06/26 06:27:49;;;;;;;3.75;3.42;;;24.30;99.90;;;;;;5009563;28;20058;-69
2022/06/26 06:30:20;;;;;;;4.35;3.95;;;24.30;99.90;;;;;;5011792;28;20056;-67
2022/06/26 06:32:48;;;;;;;3.67;3.38;;;24.40;99.90;;;;;;5024499;28;20045;-74
2022/06/26 06:35:29;;;;;;;4.65;4.25;;;24.50;99.90;;;;;;5016253;28;20132;-69
2022/06/26 06:37:56;;;;;;;5.80;3.75;;;24.60;99.90;;;;;;5006982;28;20121;-67
2022/06/26 06:40:23;;;;;;;3.58;3.28;;;24.70;99.90;;;;;;5018945;28;20844;-72
2022/06/26 06:42:53;;;;;;;;;;;24.70;99.90;;;;;;5028077;28;20393;-70
2022/06/26 06:45:25;;;;;;;3.55;3.30;;;24.80;99.90;;;;;;5018063;28;19925;-67
2022/06/26 06:48:00;;;;;;;9.88;3.65;;;25.00;99.90;;;;;;4996602;28;20054;-69
2022/06/26 06:50:40;;;;;;;3.10;2.90;;;25.00;99.90;;;;;;4989676;28;20046;-69
2022/06/26 06:53:08;;;;;;;3.20;2.90;;;25.10;99.90;;;;;;4995496;28;20065;-67
2022/06/26 06:55:35;;;;;;;3.65;3.35;;;25.20;99.90;;;;;;4992747;28;20432;-67
2022/06/26 06:58:02;;;;;;;5.55;2.70;;;25.30;99.90;;;;;;5003670;28;20141;-69
2022/06/26 07:00:29;;;;;;;4.53;3.03;;;25.40;99.90;;;;;;4998696;28;20043;-72
2022/06/26 07:03:04;;;;;;;3.22;2.70;;;25.50;99.90;;;;;;4994218;28;20535;-68
2022/06/26 07:05:32;;;;;;;3.08;2.88;;;25.50;99.90;;;;;;4995887;28;20192;-72
2022/06/26 07:08:00;;;;;;;3.28;3.03;;;25.70;99.90;;;;;;5016307;28;20050;-71
2022/06/26 07:10:28;;;;;;;2.97;2.78;;;25.80;99.90;;;;;;4993314;28;20050;-68
2022/06/26 07:12:57;;;;;;;3.22;3.00;;;25.80;99.90;;;;;;5001439;28;20383;-73
2022/06/26 07:15:25;;;;;;;2.92;2.63;;;25.90;99.90;;;;;;4991240;28;20066;-68
2022/06/26 07:17:52;;;;;;;3.13;2.80;;;26.10;99.90;;;;;;5001500;28;20058;-68
2022/06/26 07:20:19;;;;;;;2.72;2.53;;;26.10;99.90;;;;;;4999474;28;20062;-68
2022/06/26 07:22:46;;;;;;;2.90;2.70;;;26.20;99.90;;;;;;4997753;28;20050;-67
2022/06/26 07:25:58;;;;;;;3.60;3.35;;;26.30;99.90;;;;;;4974462;28;20062;-71
2022/06/26 07:28:37;;;;;;;3.40;3.00;;;26.40;99.90;;;;;;4967829;28;20046;-70
2022/06/26 07:31:05;;;;;;;3.40;2.60;;;26.40;99.90;;;;;;4985571;28;20688;-71
2022/06/26 07:36:39;;;;;;;4.20;3.08;;;26.60;99.90;;;;;;4962415;28;20043;-68
2022/06/26 07:39:07;;;;;;;4.50;3.38;;;26.70;99.90;;;;;;4954364;28;20138;-72
2022/06/26 07:41:34;;;;;;;3.47;3.17;;;26.80;99.90;;;;;;4978819;28;20062;-67
2022/06/26 07:44:01;;;;;;;3.72;3.42;;;26.80;99.90;;;;;;4997260;28;20058;-69
2022/06/26 07:46:28;;;;;;;3.90;3.60;;;26.80;99.90;;;;;;4994639;28;20057;-73
2022/06/26 07:48:56;;;;;;;4.10;3.80;;;26.80;99.90;;;;;;4991877;28;20592;-71
2022/06/26 07:51:23;;;;;;;3.10;2.90;;;26.90;99.90;;;;;;5003428;28;20090;-74
2022/06/26 07:53:50;;;;;;;4.55;4.03;;;26.90;99.90;;;;;;4996650;28;20079;-71
2022/06/26 07:56:17;;;;;;;4.30;3.78;;;27.00;99.90;;;;;;5004823;28;20045;-67
2022/06/26 07:58:44;;;;;;;3.67;3.38;;;27.10;99.90;;;;;;4989080;28;20519;-67
2022/06/26 08:01:12;;;;;;;4.15;3.75;;;27.20;99.90;;;;;;4999034;28;20357;-72
2022/06/26 08:03:44;;;;;;;4.45;4.05;;;27.30;99.90;;;;;;5000412;28;20061;-69
2022/06/26 08:06:11;;;;;;;4.93;3.85;;;27.40;99.90;;;;;;4995867;28;20129;-68
2022/06/26 08:08:38;;;;;;;8.30;3.88;;;27.40;99.90;;;;;;4997253;28;20484;-73
2022/06/26 08:11:05;;;;;;;4.60;4.28;;;27.50;99.90;;;;;;4999537;28;20101;-67
2022/06/26 08:13:32;;;;;;;4.85;3.85;;;27.60;99.90;;;;;;4998273;28;20045;-68
2022/06/26 08:15:59;;;;;;;5.43;3.53;;;27.70;99.90;;;;;;4991326;28;20774;-67
2022/06/26 08:18:26;;;;;;;3.60;3.30;;;27.70;99.90;;;;;;4989497;28;20488;-67
2022/06/26 08:20:53;;;;;;;5.25;3.72;;;27.70;99.90;;;;;;4992404;28;20507;-71
2022/06/26 08:23:20;;;;;;;7.15;5.60;;;27.80;99.90;;;;;;4996048;28;20050;-69
2022/06/26 08:25:47;;;;;;;3.83;3.50;;;27.90;99.90;;;;;;4997604;28;20635;-68
2022/06/26 08:28:14;;;;;;;3.45;3.15;;;28.00;99.90;;;;;;5008244;28;20133;-67
2022/06/26 08:30:41;;;;;;;4.47;4.07;;;28.00;99.90;;;;;;5001353;28;20045;-70
2022/06/26 08:33:08;;;;;;;3.60;3.20;;;27.90;99.90;;;;;;4999644;28;20046;-74
2022/06/26 08:35:35;;;;;;;4.60;4.20;;;28.00;99.90;;;;;;5005928;28;20199;-70
2022/06/26 08:38:02;;;;;;;6.50;3.92;;;28.10;99.90;;;;;;5001952;28;20144;-70
2022/06/26 08:40:29;;;;;;;3.42;3.20;;;28.00;99.90;;;;;;4999089;28;20076;-67
2022/06/26 08:42:58;;;;;;;4.53;3.15;;;28.00;99.90;;;;;;5003472;28;20082;-67
2022/06/26 08:45:27;;;;;;;5.00;3.70;;;28.10;99.90;;;;;;5001223;28;20787;-68
2022/06/26 08:47:57;;;;;;;4.00;3.22;;;28.30;99.90;;;;;;5002195;28;20491;-67
2022/06/26 08:50:23;;;;;;;4.57;2.83;;;28.60;99.90;;;;;;5000602;28;20119;-72
2022/06/26 08:52:52;;;;;;;3.50;3.20;;;28.80;99.90;;;;;;5007600;28;20057;-67
2022/06/26 08:55:20;;;;;;;8.00;3.35;;;28.80;99.90;;;;;;5012032;28;20062;-71
2022/06/26 08:57:48;;;;;;;3.40;3.20;;;28.80;99.90;;;;;;4994680;28;20054;-68
2022/06/26 09:00:16;;;;;;;3.75;3.55;;;28.80;99.90;;;;;;5006895;28;20099;-67
2022/06/26 09:02:44;;;;;;;3.40;3.13;;;29.00;99.90;;;;;;4997911;28;20058;-68
2022/06/26 09:05:12;;;;;;;3.35;3.13;;;29.20;99.90;;;;;;5004340;28;20100;-68
2022/06/26 09:07:51;;;;;;;3.08;2.88;;;29.30;99.90;;;;;;4997633;28;20140;-67
2022/06/26 09:10:21;;;;;;;8.43;4.15;;;29.50;99.90;;;;;;5005465;28;20038;-70
2022/06/26 09:12:53;;;;;;;3.55;3.20;;;29.50;99.90;;;;;;4996616;28;20057;-70
2022/06/26 09:15:21;;;;;;;5.07;2.90;;;29.50;99.90;;;;;;5003924;28;20148;-71
2022/06/26 09:18:01;;;;;;;3.33;3.03;;;29.60;99.90;;;;;;5001994;28;20054;-68
2022/06/26 09:20:29;;;;;;;;;;;29.70;99.90;;;;;;5005222;28;20149;-70
2022/06/26 09:22:59;;;;;;;7.13;3.60;;;29.70;99.70;;;;;;5005390;28;19952;-71
2022/06/26 09:25:38;;;;;;;3.00;2.80;;;29.70;99.40;;;;;;5001363;28;20056;-67
2022/06/26 09:28:11;;;;;;;3.42;3.15;;;29.80;99.40;;;;;;5004242;28;21085;-67
2022/06/26 09:30:51;;;;;;;2.95;2.70;;;29.90;98.60;;;;;;5004222;28;20042;-67
2022/06/26 09:33:20;;;;;;;5.55;3.72;;;30.00;98.10;;;;;;4997901;28;20057;-69
2022/06/26 09:35:47;;;;;;;3.60;3.30;;;30.10;97.90;;;;;;4993963;28;20481;-72
2022/06/26 09:38:17;;;;;;;4.40;3.53;;;30.20;98.90;;;;;;5002061;28;20061;-71
2022/06/26 09:41:01;;;;;;;3.92;3.42;;;30.30;97.90;;;;;;5002571;28;20145;-68
2022/06/26 09:43:35;;;;;;;3.45;3.20;;;30.40;97.40;;;;;;4994443;28;20651;-67
2022/06/26 09:46:07;;;;;;;2.90;2.70;;;30.30;97.20;;;;;;5002856;28;20403;-70
2022/06/26 09:48:35;;;;;;;5.38;3.15;;;30.30;98.00;;;;;;4998834;28;20042;-67
2022/06/26 09:51:04;;;;;;;2.97;2.53;;;30.20;97.50;;;;;;4995271;28;20050;-67
2022/06/26 09:53:32;;;;;;;3.40;3.20;;;30.10;97.70;;;;;;4993980;28;20047;-67
2022/06/26 09:56:00;;;;;;;3.67;3.22;;;30.00;97.10;;;;;;4993486;28;20046;-67
2022/06/26 09:58:28;;;;;;;3.13;2.85;;;29.90;97.70;;;;;;4993112;28;20120;-68
2022/06/26 10:06:32;;;;;;;2.90;2.70;;;30.30;98.40;;;;;;5001700;28;20104;-69
2022/06/26 10:09:02;;;;;;;3.35;3.15;;;30.40;97.60;;;;;;4997920;28;20496;-67
2022/06/26 10:11:30;;;;;;;;;;;30.40;96.90;;;;;;4996671;28;20078;-68
2022/06/26 10:14:19;;;;;;;3.03;2.83;;;30.20;96.90;;;;;;5004792;28;19922;-67
2022/06/26 10:17:17;;;;;;;4.18;3.78;;;30.00;97.10;;;;;;5006304;28;20050;-69
2022/06/26 10:20:04;;;;;;;3.45;3.15;;;30.10;97.00;;;;;;4995434;28;20058;-76
2022/06/26 10:22:45;;;;;;;3.80;3.05;;;30.30;96.60;;;;;;4994813;28;20074;-67
2022/06/26 10:25:27;;;;;;;6.25;3.28;;;30.60;97.00;;;;;;5014252;28;20041;-72
2022/06/26 10:27:55;;;;;;;6.30;4.15;;;30.70;96.40;;;;;;4993892;28;20045;-69
2022/06/26 10:30:25;;;;;;;4.40;3.17;;;30.90;96.30;;;;;;5011432;28;20076;-68
2022/06/26 10:33:10;;;;;;;3.58;3.28;;;31.00;95.40;;;;;;4997144;28;20431;-67
2022/06/26 10:35:48;;;;;;;3.10;2.80;;;31.20;95.00;;;;;;4996486;28;20107;-67
2022/06/26 10:38:22;;;;;;;4.25;3.88;;;31.20;95.50;;;;;;4991852;28;20606;-67
2022/06/26 10:43:51;;;;;;;6.60;3.30;;;31.20;94.80;;;;;;5002295;28;20153;-69
2022/06/26 10:46:21;;;;;;;8.60;4.28;;;31.20;94.60;;;;;;5001336;28;20054;-71
2022/06/26 10:48:50;;;;;;;3.92;3.53;;;31.10;94.50;;;;;;5001850;28;20108;-67
2022/06/26 10:51:28;;;;;;;3.07;2.87;;;31.20;95.10;;;;;;4999455;28;20053;-69
2022/06/26 10:53:56;;;;;;;4.10;3.65;;;31.40;95.20;;;;;;4987129;28;20046;-70
2022/06/26 10:56:23;;;;;;;3.08;2.88;;;31.50;94.40;;;;;;5006638;28;20108;-70
2022/06/26 10:59:01;;;;;;;2.95;2.75;;;31.70;93.70;;;;;;4998103;28;20829;-70
2022/06/26 11:01:28;;;;;;;3.00;2.80;;;31.90;93.70;;;;;;4994920;28;20400;-69
2022/06/26 11:03:57;;;;;;;3.45;3.15;;;32.00;93.00;;;;;;4996531;28;20053;-67
2022/06/26 11:06:27;;;;;;;2.60;2.45;;;32.00;92.80;;;;;;5003839;28;20045;-72
2022/06/26 11:08:54;;;;;;;;;;;32.00;91.80;;;;;;4997894;28;20057;-69
2022/06/26 11:11:28;;;;;;;5.25;3.33;;;31.80;91.60;;;;;;5001546;28;19922;-71
2022/06/26 11:14:01;;;;;;;4.55;3.65;;;31.80;91.80;;;;;;5004939;28;20038;-69
2022/06/26 11:16:36;;;;;;;3.80;2.85;;;31.80;91.70;;;;;;5000510;28;20053;-68
2022/06/26 11:19:07;;;;;;;2.80;2.60;;;31.80;91.80;;;;;;4991023;28;20065;-68
2022/06/26 11:21:34;;;;;;;2.70;2.50;;;31.80;91.50;;;;;;4993568;28;20096;-71
2022/06/26 11:24:02;;;;;;;3.33;2.35;;;32.00;90.10;;;;;;4995253;28;20073;-70
2022/06/26 11:26:30;;;;;;;3.50;2.80;;;31.80;90.30;;;;;;4999684;28;20100;-68
2022/06/26 11:29:02;;;;;;;4.90;2.60;;;32.00;90.50;;;;;;4996865;28;20133;-70
2022/06/26 11:31:31;;;;;;;2.65;2.45;;;31.90;90.10;;;;;;4996591;28;20046;-68
2022/06/26 11:34:09;;;;;;;3.40;2.30;;;32.00;88.60;;;;;;4996734;28;20043;-68
2022/06/26 11:36:36;;;;;;;2.30;2.17;;;32.10;89.20;;;;;;5001534;28;20070;-68
2022/06/26 11:39:03;;;;;;;2.30;2.20;;;32.10;87.80;;;;;;4995501;28;20050;-69
2022/06/26 11:41:30;;;;;;;3.70;3.03;;;32.00;88.90;;;;;;4999209;28;20072;-67
2022/06/26 11:43:58;;;;;;;4.00;2.13;;;32.20;89.10;;;;;;4992630;28;20054;-67
2022/06/26 11:46:25;;;;;;;5.43;2.70;;;32.20;87.60;;;;;;5002667;28;20073;-69
2022/06/26 11:48:53;;;;;;;4.22;2.15;;;32.20;89.10;;;;;;4991101;28;20053;-70
2022/06/26 11:51:21;;;;;;;3.22;2.92;;;32.00;88.60;;;;;;4998252;28;20124;-68
2022/06/26 11:53:50;;;;;;;2.55;1.95;;;31.80;84.80;;;;;;4988239;28;20815;-70
2022/06/26 11:56:28;;;;;;;6.90;4.78;;;31.60;89.00;;;;;;4989938;28;20200;-67
2022/06/26 11:58:58;;;;;;;3.25;2.55;;;31.60;87.90;;;;;;4992381;28;20081;-68
2022/06/26 12:01:33;;;;;;;3.67;3.38;;;31.60;87.50;;;;;;4990133;28;20066;-69
2022/06/26 12:04:01;;;;;;;4.38;3.60;;;31.40;91.30;;;;;;4989965;28;20437;-71
2022/06/26 12:06:42;;;;;;;4.80;3.33;;;31.20;91.90;;;;;;5000298;28;20042;-68
2022/06/26 12:09:26;;;;;;;4.30;3.90;;;30.90;92.10;;;;;;4997648;28;20115;-73
2022/06/26 12:11:55;;;;;;;4.90;4.43;;;30.50;92.30;;;;;;5002779;28;20072;-67
2022/06/26 12:14:27;;;;;;;5.38;3.60;;;29.70;93.60;;;;;;4995807;28;20104;-70
2022/06/26 12:16:57;;;;;;;4.75;4.35;;;29.60;94.10;;;;;;5002121;28;20058;-70
2022/06/26 12:19:24;;;;;;;4.80;3.75;;;29.60;93.90;;;;;;4997173;28;20069;-71
2022/06/26 12:21:54;;;;;;;4.63;4.25;;;29.30;94.90;;;;;;5000730;28;20433;-71
2022/06/26 12:24:21;;;;;;;4.65;4.18;;;29.00;95.30;;;;;;4996940;28;20046;-71
2022/06/26 12:26:49;;;;;;;4.30;4.00;;;28.70;95.70;;;;;;5003473;28;20053;-70
2022/06/26 12:29:19;;;;;;;5.03;4.63;;;28.60;96.30;;;;;;4999692;28;20049;-74
2022/06/26 12:31:52;;;;;;;6.18;5.57;;;28.40;96.90;;;;;;4998991;28;20131;-69
2022/06/26 12:34:19;;;;;;;8.68;6.47;;;28.10;97.60;;;;;;5002170;28;20053;-68
2022/06/26 12:36:46;;;;;;;5.22;4.82;;;27.90;97.90;;;;;;4997730;28;20042;-70
2022/06/26 12:39:15;;;;;;;4.80;4.45;;;27.80;98.40;;;;;;5000919;28;20400;-67
2022/06/26 12:42:02;;;;;;;11.45;5.55;;;28.10;98.20;;;;;;5003005;28;20046;-68
2022/06/26 12:44:29;;;;;;;4.40;4.10;;;28.10;98.20;;;;;;4996883;28;20488;-72
2022/06/26 12:46:56;;;;;;;7.05;5.35;;;28.10;98.50;;;;;;5000565;28;20120;-69
2022/06/26 12:49:23;;;;;;;4.43;4.00;;;28.00;98.80;;;;;;4996342;28;20443;-72
2022/06/26 12:51:52;;;;;;;5.63;4.07;;;28.10;98.70;;;;;;4995596;28;20054;-69
2022/06/26 12:54:19;;;;;;;6.15;4.80;;;28.20;98.40;;;;;;4991180;28;20095;-73
2022/06/26 12:56:46;;;;;;;4.57;4.18;;;28.20;97.90;;;;;;4989364;28;20392;-67
2022/06/26 12:59:13;;;;;;;3.72;3.53;;;28.10;98.10;;;;;;4989944;28;20539;-67
2022/06/26 13:01:39;;;;;;;5.13;3.80;;;28.10;98.90;;;;;;4999533;28;20052;-68
2022/06/26 13:04:06;;;;;;;4.53;4.13;;;28.10;98.60;;;;;;5002349;28;20060;-70
2022/06/26 13:06:33;;;;;;;8.68;4.40;;;28.10;98.40;;;;;;5004084;28;20084;-67
2022/06/26 13:09:00;;;;;;;4.40;3.92;;;27.70;97.70;;;;;;4999248;28;20095;-68
2022/06/26 13:11:27;;;;;;;4.43;4.03;;;28.00;98.30;;;;;;5009423;28;20137;-68
2022/06/26 13:13:55;;;;;;;4.45;4.05;;;28.10;98.80;;;;;;5001014;28;20050;-67
2022/06/26 13:16:38;;;;;;;8.00;5.22;;;28.30;99.00;;;;;;5000182;28;20062;-70